ブエノスアイレス/エセイサ の空港の天気 - METARとTAF

エセイサ国際空港 ( SAEZ / EZE ) - アルゼンチン ブエノスアイレス州、Ezeiza
飛行場実況気象(Metar)
観測時間09/24 22:00 ART (09/25 01:00 UTC)
風向・風速南東 3m/s
視程10km以上
天気現象
なし
気温16℃
湿度55%
気圧1018hPa
METARSAEZ 250100Z 14006KT CAVOK 16/07 Q1018 NOSIG
過去の天気等 Google飛行場航空写真 Wunderground天気予報

過去48時間のMETAR

飛行場予報(TAF)
発表時間: 9/24 14:00 ART (9/24 17:00 UTC)
予報対象時間: 24日15時 ART ~ 25日15時 ART
風向・風速東 5m/s
視程10km以上
なし
25日9時 ART ~ 25日13時 ART に徐々に
風向・風速東 8m/s
TAF SAEZ 241700Z 2418/2518 09010KT CAVOK TX22/2518Z TN11/2510Z
BECMG 2512/2516 08015KT